メインページ
METAR-TAF:

METAR-TAF

空港 :

台北, 台湾

台湾桃園国際空港

緯度: 25-05N, 経度: 121-13E, 海抜: 33m

現時点の気象観測

当レポートは37分前の23:00(UTC)に作成
南/南西の風 7kt
気温 29°C
湿度 89%
気圧 1011 hPa
視程: 5000m
高度2000ftの雲はほとんどない

METAR: RCTP 232300Z 21007KT 5000 BR FEW020 29/27 Q1011 NOSIG RMK A2987

時間: 07:37 (23:37 UTC)

予報

当レポートは6時間37分前の17:00(UTC)に作成
予報は23日の 18時(UTC)から 24日の 24時(UTC)まで有効
南西の風 5kt
視程10km以上
高度2000ftの雲はほとんどない
高度3200ftの千切れ雲あり
23日の 20時(UTC)から 24日の 02時(UTC)まで一時的に
南/南東の風 5kt
視程: 5000m
高度800ftの雲は散在している
高度1500ftの千切れ雲あり
高度3000ftの千切れ雲あり
24日の 01時(UTC)から 24日の 03時(UTC)まで徐々に
北西の風 5kt
24日の 04時(UTC)から 24日の 10時(UTC)まで一時的に
北/北東の風 4kt
高度800ftの雲は散在している
高度1200ftの千切れ雲あり
高度2500ftの千切れ雲あり
24日の 13時(UTC)から 24日の 15時(UTC)まで徐々に
南/南東の風 5kt
24日の 20時(UTC)から 24日の 24時(UTC)まで一時的に
高度600ftの雲は散在している
高度1200ftの千切れ雲あり
高度2500ftの千切れ雲あり

TAF: RCTP 231700Z 2318/2424 22005KT 9999 FEW020 BKN032 TEMPO 2320/2402 16005KT 5000 BR SCT008 BKN015 BKN030 BECMG 2401/2403 32005KT TEMPO 2404/2410 02004KT SCT008 BKN012 BKN025 BECMG 2413/2415 15005KT TEMPO 2420/2424 SCT006 BKN012 BKN025

4,000以上の空港の気象観測と天気予報(METAR報とTAF報)

利用可能な観測所は地図上に黄色い丸と赤い丸で示す。

丸の上にカーソルを重ねると観測所名を参照できる。

次にクリックすると気象観測と天気予報を参照できる。

マップの切り替え:黒色「×」印の緑ボタンをクリックして拡大、「-」印の緑ボタンをクリックして縮小、緑色の三角印をクリックして隣りの地図に切り替え


METAR-TAF: